createdAt,value
2022-10-19T00:01:29.743Z,14.90
2022-10-19T00:04:03.535Z,21.20
2022-10-19T00:06:37.987Z,17.90
2022-10-19T00:09:10.246Z,18.40
2022-10-19T00:11:42.995Z,19.00
2022-10-19T00:14:15.226Z,19.00
2022-10-19T00:16:47.137Z,16.60
2022-10-19T00:19:19.558Z,17.80
2022-10-19T00:24:25.657Z,17.00
2022-10-19T00:26:56.301Z,19.70
2022-10-19T00:29:26.826Z,21.50
2022-10-19T00:31:57.275Z,15.30
2022-10-19T00:34:28.133Z,19.10
2022-10-19T00:36:58.522Z,15.90
2022-10-19T00:39:28.959Z,17.20
2022-10-19T00:41:59.436Z,15.70
2022-10-19T00:45:05.349Z,16.80
2022-10-19T00:47:36.564Z,17.10
2022-10-19T00:50:08.476Z,31.20
2022-10-19T00:52:39.136Z,15.60
2022-10-19T00:55:10.648Z,14.00
2022-10-19T00:57:42.078Z,16.90
2022-10-19T01:00:13.777Z,17.20
2022-10-19T01:02:44.229Z,16.10
2022-10-19T01:05:14.970Z,20.10
2022-10-19T01:07:45.395Z,22.90
2022-10-19T01:10:15.848Z,17.30
2022-10-19T01:13:03.433Z,19.90
2022-10-19T01:15:41.739Z,24.40
2022-10-19T01:18:19.542Z,18.10
2022-10-19T01:21:26.066Z,20.90
2022-10-19T01:24:18.410Z,21.80
2022-10-19T01:27:04.010Z,18.90
2022-10-19T01:29:44.826Z,19.60
2022-10-19T01:32:20.404Z,18.30
2022-10-19T01:34:54.052Z,19.10
2022-10-19T01:37:33.091Z,14.80
2022-10-19T01:40:08.909Z,20.40
2022-10-19T01:42:45.742Z,21.30
2022-10-19T01:45:19.931Z,17.80
2022-10-19T01:47:55.272Z,17.20
2022-10-19T01:50:29.070Z,16.80
2022-10-19T01:53:00.245Z,16.00
2022-10-19T01:55:31.709Z,15.10
2022-10-19T01:58:08.311Z,17.80
2022-10-19T02:00:42.716Z,15.30
2022-10-19T02:03:14.613Z,13.50
2022-10-19T02:05:46.716Z,13.70
2022-10-19T02:08:21.586Z,15.50
2022-10-19T02:10:52.126Z,13.10
2022-10-19T02:13:23.519Z,14.90
2022-10-19T02:15:56.182Z,14.40
2022-10-19T02:18:30.090Z,11.70
2022-10-19T02:21:01.417Z,13.00
2022-10-19T02:23:32.003Z,14.80
2022-10-19T02:26:02.427Z,12.70
2022-10-19T02:28:33.279Z,9.70
2022-10-19T02:31:04.345Z,10.60
2022-10-19T02:33:34.803Z,13.70
2022-10-19T02:36:05.951Z,12.60
2022-10-19T02:38:36.427Z,9.50
2022-10-19T02:41:09.700Z,13.50
2022-10-19T02:43:42.320Z,12.10
2022-10-19T02:46:16.773Z,10.90
2022-10-19T02:48:47.756Z,10.70
2022-10-19T02:51:31.760Z,11.80
2022-10-19T02:54:05.090Z,11.20
2022-10-19T02:56:36.368Z,13.80
2022-10-19T02:59:06.876Z,10.20
2022-10-19T03:01:37.278Z,10.40
2022-10-19T03:04:07.797Z,15.50
2022-10-19T03:06:38.212Z,9.40
2022-10-19T03:09:08.630Z,10.80
2022-10-19T03:11:39.103Z,14.00
2022-10-19T03:14:09.772Z,9.50
2022-10-19T03:16:40.268Z,11.30
2022-10-19T03:19:10.691Z,8.50
2022-10-19T03:21:41.115Z,8.50
2022-10-19T03:24:11.502Z,9.50
2022-10-19T03:26:41.910Z,10.70
2022-10-19T03:29:12.313Z,10.60
2022-10-19T03:31:42.699Z,13.40
2022-10-19T03:34:13.130Z,16.00
2022-10-19T03:36:44.289Z,8.70
2022-10-19T03:39:16.154Z,13.50
2022-10-19T03:41:46.766Z,10.10
2022-10-19T03:44:17.223Z,9.80
2022-10-19T03:46:47.669Z,9.30
2022-10-19T03:49:18.126Z,13.00
2022-10-19T03:51:48.508Z,10.80
2022-10-19T03:54:20.648Z,9.30
2022-10-19T03:56:54.058Z,7.80
2022-10-19T03:59:25.123Z,10.70
2022-10-19T04:01:55.598Z,11.40
2022-10-19T04:04:27.164Z,12.80
2022-10-19T04:07:01.943Z,13.20
2022-10-19T04:09:33.783Z,11.60
2022-10-19T04:12:06.392Z,12.20
2022-10-19T04:14:52.553Z,11.80
2022-10-19T04:17:28.962Z,11.50
2022-10-19T04:22:30.406Z,10.70
2022-10-19T04:25:01.873Z,8.00
2022-10-19T04:27:36.404Z,9.60
2022-10-19T04:30:08.637Z,20.60
2022-10-19T04:32:39.058Z,13.50
2022-10-19T04:35:10.533Z,11.30
2022-10-19T04:37:40.917Z,10.80
2022-10-19T04:40:15.158Z,8.90
2022-10-19T04:42:45.781Z,13.70
2022-10-19T04:45:16.366Z,13.60
2022-10-19T04:47:46.742Z,13.10
2022-10-19T04:50:17.222Z,12.30
2022-10-19T04:52:47.969Z,13.60
2022-10-19T04:55:18.711Z,14.40
2022-10-19T04:57:49.080Z,9.80
2022-10-19T05:00:20.264Z,10.40
2022-10-19T05:02:50.666Z,12.20
2022-10-19T05:05:21.116Z,10.80
2022-10-19T05:07:52.591Z,14.10
2022-10-19T05:10:23.196Z,14.90
2022-10-19T05:12:53.955Z,10.70
2022-10-19T05:15:24.451Z,10.20
2022-10-19T05:17:54.881Z,12.10
2022-10-19T05:20:25.440Z,14.30
2022-10-19T05:22:55.895Z,13.20
2022-10-19T05:25:26.341Z,15.40
2022-10-19T05:27:56.786Z,10.90
2022-10-19T05:30:28.282Z,15.30
2022-10-19T05:32:58.802Z,12.60
2022-10-19T05:35:29.150Z,12.90
2022-10-19T05:37:59.521Z,12.40
2022-10-19T05:40:30.008Z,17.20
2022-10-19T05:43:00.382Z,13.20
2022-10-19T05:45:30.681Z,15.40
2022-10-19T05:48:01.413Z,12.00
2022-10-19T05:50:31.747Z,11.50
2022-10-19T05:53:02.130Z,13.00
2022-10-19T05:55:37.141Z,12.50
2022-10-19T05:58:07.550Z,12.50
2022-10-19T06:00:38.215Z,9.60
2022-10-19T06:03:08.597Z,13.80
2022-10-19T06:05:39.642Z,12.00
2022-10-19T06:08:10.117Z,19.10
2022-10-19T06:10:40.486Z,16.30
2022-10-19T06:13:11.347Z,15.60
2022-10-19T06:15:41.750Z,11.80
2022-10-19T06:18:13.377Z,11.80
2022-10-19T06:20:44.436Z,11.70
2022-10-19T06:23:14.808Z,14.70
2022-10-19T06:25:45.469Z,10.10
2022-10-19T06:28:15.907Z,12.30
2022-10-19T06:30:46.423Z,9.50
2022-10-19T06:33:16.792Z,14.40
2022-10-19T06:35:47.213Z,10.60
2022-10-19T06:38:18.044Z,12.60
2022-10-19T06:40:50.263Z,14.30
2022-10-19T06:43:24.710Z,11.90
2022-10-19T06:45:56.085Z,14.40
2022-10-19T06:54:25.684Z,13.60
2022-10-19T06:56:56.554Z,10.70
2022-10-19T06:59:28.259Z,9.20
2022-10-19T07:01:59.780Z,13.00
2022-10-19T07:04:32.218Z,11.20
2022-10-19T07:07:03.211Z,13.50
2022-10-19T07:09:34.485Z,10.40
2022-10-19T07:12:05.946Z,9.70
2022-10-19T07:14:39.741Z,10.10
2022-10-19T07:17:11.360Z,10.30
2022-10-19T07:19:43.015Z,13.30
2022-10-19T07:22:19.706Z,11.30
2022-10-19T07:24:53.516Z,9.90
2022-10-19T07:27:24.234Z,10.90
2022-10-19T07:29:55.630Z,12.20
2022-10-19T07:32:27.287Z,14.70
2022-10-19T07:34:58.868Z,11.10
2022-10-19T07:37:33.103Z,13.90
2022-10-19T07:40:05.541Z,10.60
2022-10-19T07:42:37.761Z,9.70
2022-10-19T07:45:09.677Z,9.70
2022-10-19T07:47:39.982Z,12.20
2022-10-19T07:50:11.162Z,7.30
2022-10-19T07:52:41.834Z,8.90
2022-10-19T07:55:12.600Z,14.30
2022-10-19T07:57:44.952Z,9.50
2022-10-19T08:00:17.037Z,7.10
2022-10-19T08:03:12.139Z,11.30
2022-10-19T08:05:38.132Z,7.00
2022-10-19T08:08:08.766Z,11.40
2022-10-19T08:10:39.230Z,7.10
2022-10-19T08:13:09.919Z,8.80
2022-10-19T08:15:40.370Z,9.60
2022-10-19T08:18:11.405Z,7.00
2022-10-19T08:20:44.117Z,10.50
2022-10-19T08:25:43.378Z,7.50
2022-10-19T08:28:13.862Z,10.50
2022-10-19T08:30:44.675Z,10.90
2022-10-19T08:33:15.228Z,10.30
2022-10-19T08:35:45.596Z,11.50
2022-10-19T08:38:16.041Z,7.80
2022-10-19T08:40:47.409Z,6.70
2022-10-19T08:43:22.909Z,9.90
2022-10-19T08:46:01.623Z,11.20
2022-10-19T08:48:38.609Z,9.50
2022-10-19T08:51:12.168Z,7.80
2022-10-19T08:53:53.186Z,10.50
2022-10-19T08:56:49.778Z,11.50
2022-10-19T08:59:31.152Z,9.30
2022-10-19T09:02:10.645Z,9.00
2022-10-19T09:04:46.811Z,8.80
2022-10-19T09:07:28.331Z,7.50
2022-10-19T09:10:01.579Z,8.30
2022-10-19T09:12:46.180Z,7.30
2022-10-19T09:15:19.835Z,9.50
2022-10-19T09:17:51.318Z,9.00
2022-10-19T09:20:26.648Z,8.00
2022-10-19T09:23:07.698Z,9.20
2022-10-19T09:25:52.371Z,9.30
2022-10-19T09:28:38.975Z,7.70
2022-10-19T09:31:14.951Z,9.50
2022-10-19T09:33:49.757Z,7.90
2022-10-19T09:39:07.012Z,7.80
2022-10-19T09:41:47.599Z,9.30
2022-10-19T09:44:19.818Z,13.90
2022-10-19T09:49:41.736Z,9.00
2022-10-19T09:52:33.133Z,10.40
2022-10-19T09:55:04.864Z,6.90
2022-10-19T09:57:36.085Z,8.30
2022-10-19T10:00:07.789Z,9.80
2022-10-19T10:02:38.526Z,11.50
2022-10-19T10:05:11.663Z,8.30
2022-10-19T10:07:42.846Z,8.50
2022-10-19T10:10:25.651Z,9.50
2022-10-19T10:13:00.066Z,8.90
2022-10-19T10:15:32.020Z,9.90
2022-10-19T10:18:02.425Z,11.90
2022-10-19T10:20:33.572Z,10.40
2022-10-19T10:23:06.218Z,7.60
2022-10-19T10:25:37.701Z,9.20
2022-10-19T10:28:20.987Z,11.00
2022-10-19T10:30:56.426Z,8.00
2022-10-19T10:33:40.671Z,12.10
2022-10-19T10:36:15.091Z,7.90
2022-10-19T10:38:48.334Z,9.80
2022-10-19T10:41:22.994Z,7.80
2022-10-19T10:44:05.032Z,7.30
2022-10-19T10:46:43.117Z,8.70
2022-10-19T10:49:22.175Z,6.90
2022-10-19T10:52:19.916Z,9.90
2022-10-19T10:55:06.758Z,10.30
2022-10-19T10:57:45.045Z,11.30
2022-10-19T11:00:21.528Z,11.20
2022-10-19T11:03:25.519Z,8.80
2022-10-19T11:05:59.264Z,7.70
2022-10-19T11:08:35.405Z,7.90
2022-10-19T11:11:14.121Z,12.00
2022-10-19T11:13:58.150Z,10.40
2022-10-19T11:16:32.871Z,8.30
2022-10-19T11:19:16.107Z,12.40
2022-10-19T11:21:51.820Z,7.30
2022-10-19T11:27:16.327Z,12.80
2022-10-19T11:32:30.434Z,8.20
2022-10-19T11:35:12.254Z,8.90
2022-10-19T11:37:50.094Z,11.10
2022-10-19T11:40:54.230Z,9.80
2022-10-19T11:43:38.795Z,7.80
2022-10-19T11:46:17.096Z,9.20
2022-10-19T11:49:10.551Z,9.00
2022-10-19T11:51:45.954Z,8.90
2022-10-19T11:54:28.466Z,9.60
2022-10-19T11:57:05.556Z,8.40
2022-10-19T11:59:46.929Z,10.30
2022-10-19T12:02:40.507Z,11.00
2022-10-19T12:05:13.210Z,9.20
2022-10-19T12:08:01.486Z,12.10
2022-10-19T12:10:38.133Z,9.90
2022-10-19T12:13:13.600Z,10.00
2022-10-19T12:15:45.816Z,8.50
2022-10-19T12:20:49.946Z,9.70
2022-10-19T12:23:33.410Z,10.40
2022-10-19T12:26:06.728Z,10.30
2022-10-19T12:28:39.474Z,11.00
2022-10-19T12:31:11.809Z,9.60
2022-10-19T12:33:48.567Z,8.60
2022-10-19T12:36:27.903Z,8.90
2022-10-19T12:39:04.117Z,11.10
2022-10-19T12:41:40.289Z,8.70
2022-10-19T12:44:22.042Z,8.10
2022-10-19T12:46:58.780Z,9.60
2022-10-19T12:49:56.162Z,8.30
2022-10-19T12:53:02.349Z,9.30
2022-10-19T12:55:36.932Z,8.60
2022-10-19T12:58:26.859Z,7.80
2022-10-19T13:01:05.289Z,9.20
2022-10-19T13:04:27.912Z,10.50
2022-10-19T13:07:24.329Z,9.50
2022-10-19T13:10:06.920Z,7.70
2022-10-19T13:12:51.602Z,12.50
2022-10-19T13:15:56.839Z,10.30
2022-10-19T13:19:09.089Z,9.80
2022-10-19T13:27:40.788Z,12.60
2022-10-19T13:36:12.536Z,11.00
2022-10-19T13:38:45.948Z,8.50
2022-10-19T13:41:24.463Z,9.50
2022-10-19T13:44:06.834Z,11.00
2022-10-19T13:46:52.099Z,12.80
2022-10-19T13:49:36.598Z,10.70
2022-10-19T13:52:46.838Z,8.50
2022-10-19T13:55:32.482Z,10.50
2022-10-19T13:58:17.011Z,8.70
2022-10-19T14:01:05.433Z,9.60
2022-10-19T14:04:04.477Z,10.30
2022-10-19T14:06:37.575Z,11.90
2022-10-19T14:09:32.686Z,9.10
2022-10-19T14:12:07.508Z,8.50
2022-10-19T14:14:48.388Z,10.70
2022-10-19T14:17:20.874Z,8.70
2022-10-19T14:19:53.720Z,11.50
2022-10-19T14:25:03.276Z,9.00
2022-10-19T14:27:34.429Z,9.60
2022-10-19T14:30:06.310Z,10.30
2022-10-19T14:32:36.992Z,9.30
2022-10-19T14:35:21.401Z,11.70
2022-10-19T14:37:52.472Z,10.60
2022-10-19T14:40:28.688Z,9.60
2022-10-19T14:43:00.191Z,10.50
2022-10-19T14:45:32.861Z,9.30
2022-10-19T14:48:05.251Z,8.30
2022-10-19T14:50:42.654Z,10.10
2022-10-19T14:53:35.132Z,11.30
2022-10-19T14:56:10.262Z,8.50
2022-10-19T15:03:16.871Z,10.80
2022-10-19T15:05:56.687Z,8.80
2022-10-19T15:08:37.784Z,9.80
2022-10-19T15:11:09.729Z,8.80
2022-10-19T15:13:43.694Z,7.80
2022-10-19T15:16:35.506Z,10.20
2022-10-19T15:19:18.335Z,9.60
2022-10-19T15:21:49.592Z,7.70
2022-10-19T15:24:28.197Z,9.80
2022-10-19T15:27:10.086Z,8.60
2022-10-19T15:29:41.169Z,9.00
2022-10-19T15:32:20.488Z,7.50
2022-10-19T15:34:51.981Z,8.90
2022-10-19T15:46:10.162Z,9.50
2022-10-19T15:51:51.318Z,9.00
2022-10-19T15:54:24.387Z,7.70
2022-10-19T15:56:56.440Z,9.90
2022-10-19T15:59:26.906Z,12.70
2022-10-19T16:01:57.628Z,10.70
2022-10-19T16:04:28.177Z,8.90
2022-10-19T16:06:58.800Z,7.00
2022-10-19T16:09:29.555Z,8.60
2022-10-19T16:17:58.651Z,8.90
2022-10-19T16:20:31.622Z,10.70
2022-10-19T16:23:02.124Z,10.20
2022-10-19T16:25:32.467Z,9.20
2022-10-19T16:28:02.924Z,10.30
2022-10-19T16:30:33.409Z,12.10
2022-10-19T16:33:03.838Z,14.00
2022-10-19T16:35:34.277Z,14.10
2022-10-19T16:38:04.766Z,11.10
2022-10-19T16:40:35.327Z,13.50
2022-10-19T16:43:06.180Z,11.50
2022-10-19T16:45:36.727Z,14.30
2022-10-19T16:48:07.870Z,14.70
2022-10-19T16:50:38.355Z,10.10
2022-10-19T16:53:11.071Z,10.20
2022-10-19T16:55:42.612Z,13.20
2022-10-19T16:58:13.934Z,16.10
2022-10-19T17:00:45.180Z,12.00
2022-10-19T17:03:16.226Z,16.50
2022-10-19T17:05:47.754Z,12.20
2022-10-19T17:08:21.621Z,16.10
2022-10-19T17:10:52.732Z,15.10
2022-10-19T17:13:24.404Z,10.30
2022-10-19T17:15:56.264Z,18.90
2022-10-19T17:18:28.715Z,12.30
2022-10-19T17:26:56.073Z,14.40
2022-10-19T17:29:26.763Z,16.20
2022-10-19T17:31:57.566Z,11.80
2022-10-19T17:34:28.768Z,13.20
2022-10-19T17:37:00.385Z,13.40
2022-10-19T17:39:32.250Z,15.10
2022-10-19T17:42:05.134Z,15.70
2022-10-19T17:44:36.180Z,15.80
2022-10-19T17:49:52.774Z,15.30
2022-10-19T17:52:41.094Z,15.90
2022-10-19T17:55:13.767Z,17.10
2022-10-19T17:57:45.277Z,14.30
2022-10-19T18:00:18.265Z,11.70
2022-10-19T18:05:38.438Z,11.90
2022-10-19T18:08:18.899Z,13.70
2022-10-19T18:10:53.251Z,15.60
2022-10-19T18:13:24.548Z,13.30
2022-10-19T18:16:03.647Z,14.70
2022-10-19T18:18:37.725Z,13.20
2022-10-19T18:21:16.744Z,14.50
2022-10-19T18:23:48.637Z,14.10
2022-10-19T18:26:21.980Z,11.60
2022-10-19T18:28:54.414Z,13.80
2022-10-19T18:31:29.208Z,17.40
2022-10-19T18:34:02.336Z,14.90
2022-10-19T18:43:03.733Z,12.80
2022-10-19T18:45:35.387Z,14.00
2022-10-19T18:48:56.593Z,10.20
2022-10-19T18:51:36.311Z,13.20
2022-10-19T18:54:08.116Z,13.30
2022-10-19T18:56:39.199Z,15.00
2022-10-19T18:59:10.610Z,12.10
2022-10-19T19:01:42.096Z,13.70
2022-10-19T19:04:13.713Z,12.80
2022-10-19T19:06:44.799Z,14.00
2022-10-19T19:09:18.049Z,12.70
2022-10-19T19:11:49.152Z,12.10
2022-10-19T19:14:22.684Z,12.20
2022-10-19T19:16:54.287Z,16.30
2022-10-19T19:19:28.153Z,12.30
2022-10-19T19:22:07.789Z,12.60
2022-10-19T19:24:39.862Z,11.40
2022-10-19T19:27:12.432Z,12.90
2022-10-19T19:29:44.199Z,13.40
2022-10-19T19:32:15.540Z,14.00
2022-10-19T19:34:51.208Z,12.30
2022-10-19T19:37:28.320Z,10.80
2022-10-19T19:39:59.455Z,13.50
2022-10-19T19:42:30.973Z,13.80
2022-10-19T19:45:04.944Z,11.90
2022-10-19T19:47:37.221Z,12.00
2022-10-19T19:50:10.338Z,10.90
2022-10-19T19:55:12.194Z,12.50
2022-10-19T19:57:43.571Z,11.40
2022-10-19T20:00:16.368Z,14.80
2022-10-19T20:02:47.306Z,10.90
2022-10-19T20:05:17.837Z,12.80
2022-10-19T20:07:48.267Z,12.40
2022-10-19T20:10:20.110Z,14.00
2022-10-19T20:12:54.247Z,10.40
2022-10-19T20:15:41.652Z,13.00
2022-10-19T20:18:13.109Z,12.50
2022-10-19T20:20:45.481Z,11.50
2022-10-19T20:23:16.213Z,12.00
2022-10-19T20:25:47.154Z,14.70
2022-10-19T20:28:18.188Z,11.90
2022-10-19T20:30:49.771Z,10.40
2022-10-19T20:33:25.800Z,13.20
2022-10-19T20:35:59.059Z,14.00
2022-10-19T20:38:43.044Z,9.30
2022-10-19T20:41:14.099Z,11.90
2022-10-19T20:43:49.013Z,11.60
2022-10-19T20:46:24.868Z,12.90
2022-10-19T20:48:57.224Z,12.20
2022-10-19T20:51:31.852Z,12.00
2022-10-19T20:54:06.381Z,14.30
2022-10-19T20:56:42.639Z,10.30
2022-10-19T20:59:20.767Z,11.20
2022-10-19T21:01:57.831Z,15.20
2022-10-19T21:04:41.077Z,13.30
2022-10-19T21:10:00.438Z,12.50
2022-10-19T21:12:31.075Z,13.30
2022-10-19T21:15:01.429Z,11.50
2022-10-19T21:20:08.880Z,12.60
2022-10-19T21:22:41.363Z,14.60
2022-10-19T21:25:12.663Z,14.30
2022-10-19T21:27:43.062Z,12.40
2022-10-19T21:30:14.077Z,12.90
2022-10-19T21:32:44.473Z,11.30
2022-10-19T21:35:15.192Z,15.60
2022-10-19T21:37:45.589Z,13.60
2022-10-19T21:40:16.305Z,12.60
2022-10-19T21:42:46.676Z,10.60
2022-10-19T21:45:29.853Z,14.40
2022-10-19T21:48:01.142Z,10.60
2022-10-19T21:50:31.643Z,9.80
2022-10-19T21:53:02.800Z,10.00
2022-10-19T21:55:37.159Z,10.70
2022-10-19T21:58:07.789Z,12.40
2022-10-19T22:00:38.237Z,12.70
2022-10-19T22:03:08.773Z,7.80
2022-10-19T22:05:39.546Z,9.30
2022-10-19T22:08:10.001Z,12.30
2022-10-19T22:10:41.635Z,9.80
2022-10-19T22:13:13.342Z,10.40
2022-10-19T22:15:44.576Z,11.90
2022-10-19T22:18:18.048Z,9.20
2022-10-19T22:20:52.504Z,10.00
2022-10-19T22:28:17.575Z,13.00
2022-10-19T22:30:55.600Z,8.00
2022-10-19T22:33:30.322Z,12.20
2022-10-19T22:36:06.175Z,18.50
2022-10-19T22:38:39.411Z,8.60
2022-10-19T22:41:13.293Z,10.60
2022-10-19T22:43:44.978Z,9.40
2022-10-19T22:46:16.346Z,7.40
2022-10-19T22:48:46.849Z,12.70
2022-10-19T22:51:17.549Z,10.40
2022-10-19T22:53:48.564Z,11.50
2022-10-19T22:56:19.528Z,11.40
2022-10-19T22:58:50.454Z,8.40
2022-10-19T23:01:28.298Z,10.40
2022-10-19T23:04:06.437Z,9.70
2022-10-19T23:06:37.669Z,8.80
2022-10-19T23:09:08.710Z,9.40
2022-10-19T23:11:39.025Z,9.10
2022-10-19T23:14:09.388Z,12.20
2022-10-19T23:16:39.732Z,9.30
2022-10-19T23:19:10.116Z,20.90
2022-10-19T23:21:40.526Z,10.40
2022-10-19T23:24:13.861Z,9.40
2022-10-19T23:26:44.270Z,8.70
2022-10-19T23:29:15.651Z,11.20
2022-10-19T23:31:45.992Z,10.00
2022-10-19T23:34:16.402Z,11.90
2022-10-19T23:36:46.773Z,11.70
2022-10-19T23:39:17.061Z,10.20
2022-10-19T23:41:47.458Z,13.10
2022-10-19T23:44:17.976Z,8.40
2022-10-19T23:46:48.368Z,12.80
2022-10-19T23:49:18.853Z,9.00
2022-10-19T23:51:49.238Z,9.90
2022-10-19T23:54:19.690Z,9.90
2022-10-19T23:56:50.131Z,8.20
2022-10-19T23:59:20.706Z,10.10
